createdAt,value
2024-05-09T00:00:41.833Z,28.42
2024-05-09T00:03:11.418Z,27.25
2024-05-09T00:05:43.186Z,26.30
2024-05-09T00:08:11.489Z,33.00
2024-05-09T00:10:40.540Z,28.25
2024-05-09T00:13:09.959Z,28.58
2024-05-09T00:15:55.737Z,29.25
2024-05-09T00:18:23.022Z,31.55
2024-05-09T00:20:50.354Z,27.98
2024-05-09T00:23:17.578Z,24.13
2024-05-09T00:25:48.089Z,30.30
2024-05-09T00:28:15.183Z,28.20
2024-05-09T00:30:42.267Z,29.65
2024-05-09T00:33:10.711Z,27.27
2024-05-09T00:35:39.281Z,30.95
2024-05-09T00:38:06.736Z,31.50
2024-05-09T00:40:41.768Z,29.17
2024-05-09T00:43:12.269Z,29.65
2024-05-09T00:45:40.347Z,30.17
2024-05-09T00:48:09.370Z,31.20
2024-05-09T00:50:40.802Z,35.15
2024-05-09T00:53:11.668Z,30.92
2024-05-09T00:55:40.083Z,33.33
2024-05-09T00:58:10.242Z,31.77
2024-05-09T01:00:40.314Z,32.90
2024-05-09T01:03:20.390Z,29.77
2024-05-09T01:05:48.478Z,30.80
2024-05-09T01:08:15.692Z,32.65
2024-05-09T01:10:45.083Z,28.75
2024-05-09T01:13:14.214Z,32.15
2024-05-09T01:15:41.767Z,30.65
2024-05-09T01:18:13.459Z,29.05
2024-05-09T01:20:43.957Z,30.93
2024-05-09T01:23:15.129Z,30.67
2024-05-09T01:25:45.000Z,28.75
2024-05-09T01:28:12.734Z,31.20
2024-05-09T01:30:39.874Z,30.77
2024-05-09T01:33:09.207Z,32.70
2024-05-09T01:35:39.219Z,27.65
2024-05-09T01:38:07.711Z,32.13
2024-05-09T01:40:38.661Z,32.20
2024-05-09T01:43:11.585Z,32.17
2024-05-09T01:45:42.814Z,29.65
2024-05-09T01:48:10.880Z,30.67
2024-05-09T01:50:41.674Z,26.42
2024-05-09T01:53:11.700Z,27.48
2024-05-09T01:55:39.097Z,32.65
2024-05-09T01:58:07.148Z,30.17
2024-05-09T02:00:39.664Z,28.00
2024-05-09T02:03:13.348Z,32.40
2024-05-09T02:05:47.268Z,31.50
2024-05-09T02:08:18.393Z,30.42
2024-05-09T02:10:46.772Z,32.10
2024-05-09T02:13:14.915Z,38.25
2024-05-09T02:15:58.288Z,31.45
2024-05-09T02:18:25.592Z,34.17
2024-05-09T02:20:52.867Z,30.60
2024-05-09T02:23:20.094Z,34.85
2024-05-09T02:25:47.384Z,26.80
2024-05-09T02:28:17.408Z,30.73
2024-05-09T02:30:44.935Z,28.02
2024-05-09T02:33:13.960Z,24.40
2024-05-09T02:35:43.732Z,28.15
2024-05-09T02:38:14.461Z,27.83
2024-05-09T02:40:41.612Z,27.27
2024-05-09T02:43:10.814Z,26.90
2024-05-09T02:45:39.828Z,30.70
2024-05-09T02:48:10.254Z,25.25
2024-05-09T02:50:39.614Z,27.15
2024-05-09T02:53:08.978Z,31.70
2024-05-09T02:55:37.091Z,41.20
2024-05-09T02:58:04.532Z,36.65
2024-05-09T03:00:38.379Z,35.50
2024-05-09T03:03:10.028Z,38.22
2024-05-09T03:05:59.078Z,35.35
2024-05-09T03:08:28.011Z,36.50
2024-05-09T03:10:55.229Z,38.78
2024-05-09T03:13:22.355Z,38.13
2024-05-09T03:15:49.467Z,38.30
2024-05-09T03:18:17.680Z,34.97
2024-05-09T03:20:45.025Z,31.27
2024-05-09T03:23:12.380Z,36.20
2024-05-09T03:25:39.605Z,35.88
2024-05-09T03:28:06.945Z,68.22
2024-05-09T03:30:41.148Z,115.82
2024-05-09T03:33:19.130Z,75.32
2024-05-09T03:35:48.058Z,82.80
2024-05-09T03:38:15.526Z,25.88
2024-05-09T03:40:47.174Z,143.18
2024-05-09T03:43:14.913Z,112.35
2024-05-09T03:45:45.811Z,47.55
2024-05-09T03:48:13.377Z,27.13
2024-05-09T03:50:40.987Z,59.65
2024-05-09T03:53:11.277Z,35.08
2024-05-09T03:55:39.197Z,84.82
2024-05-09T03:58:14.292Z,37.55
2024-05-09T04:00:42.553Z,25.98
2024-05-09T04:03:11.926Z,84.22
2024-05-09T04:05:46.449Z,70.57
2024-05-09T04:08:15.386Z,19.08
2024-05-09T04:10:43.673Z,69.20
2024-05-09T04:13:11.120Z,34.28
2024-05-09T04:15:38.898Z,20.67
2024-05-09T04:18:06.212Z,36.83
2024-05-09T04:20:38.644Z,16.83
2024-05-09T04:23:10.757Z,59.17
2024-05-09T04:25:38.211Z,88.20
2024-05-09T04:28:05.750Z,102.88
2024-05-09T04:30:38.563Z,32.25
2024-05-09T04:33:11.051Z,139.77
2024-05-09T04:35:42.031Z,98.15
2024-05-09T04:38:09.643Z,95.88
2024-05-09T04:40:39.787Z,75.72
2024-05-09T04:43:13.685Z,20.58
2024-05-09T04:45:41.156Z,77.72
2024-05-09T04:48:08.974Z,61.75
2024-05-09T04:50:38.818Z,26.98
2024-05-09T04:53:10.040Z,35.90
2024-05-09T04:55:38.573Z,113.00
2024-05-09T04:58:09.046Z,89.60
2024-05-09T05:00:38.775Z,125.30
2024-05-09T05:03:13.783Z,94.80
2024-05-09T05:05:46.082Z,84.85
2024-05-09T05:08:18.882Z,95.28
2024-05-09T05:10:48.670Z,116.90
2024-05-09T05:13:17.949Z,45.35
2024-05-09T05:15:46.754Z,87.97
2024-05-09T05:18:15.311Z,106.65
2024-05-09T05:20:43.035Z,96.70
2024-05-09T05:23:15.474Z,77.70
2024-05-09T05:25:43.579Z,58.85
2024-05-09T05:28:11.027Z,33.63
2024-05-09T05:30:38.927Z,50.22
2024-05-09T05:33:07.296Z,32.33
2024-05-09T05:35:35.005Z,40.38
2024-05-09T05:38:03.281Z,52.30
2024-05-09T05:40:37.048Z,33.92
2024-05-09T05:43:06.495Z,45.83
2024-05-09T05:45:33.561Z,48.17
2024-05-09T05:48:03.851Z,68.03
2024-05-09T05:50:35.935Z,36.30
2024-05-09T05:53:08.869Z,24.70
2024-05-09T05:55:37.575Z,28.50
2024-05-09T05:58:05.152Z,29.70
2024-05-09T06:00:38.656Z,46.92
2024-05-09T06:03:09.626Z,25.45
2024-05-09T06:05:39.594Z,24.60
2024-05-09T06:08:07.692Z,27.02
2024-05-09T06:10:39.048Z,36.28
2024-05-09T06:13:15.549Z,40.33
2024-05-09T06:15:44.939Z,29.67
2024-05-09T06:18:13.608Z,37.88
2024-05-09T06:20:43.430Z,34.60
2024-05-09T06:23:11.670Z,29.88
2024-05-09T06:25:39.090Z,35.50
2024-05-09T06:28:06.566Z,33.83
2024-05-09T06:30:40.466Z,33.67
2024-05-09T06:33:12.139Z,34.05
2024-05-09T06:35:41.668Z,35.63
2024-05-09T06:38:09.716Z,32.47
2024-05-09T06:40:40.484Z,37.45
2024-05-09T06:43:14.012Z,38.13
2024-05-09T06:45:41.361Z,32.87
2024-05-09T06:48:10.480Z,35.92
2024-05-09T06:50:39.660Z,34.25
2024-05-09T06:53:10.489Z,32.47
2024-05-09T06:55:38.006Z,32.70
2024-05-09T06:58:06.720Z,33.30
2024-05-09T07:00:39.125Z,30.35
2024-05-09T07:03:14.965Z,32.13
2024-05-09T07:05:44.711Z,29.33
2024-05-09T07:08:12.163Z,27.83
2024-05-09T07:10:39.426Z,29.55
2024-05-09T07:13:14.287Z,29.73
2024-05-09T07:15:42.415Z,23.45
2024-05-09T07:18:14.077Z,22.58
2024-05-09T07:20:42.232Z,23.58
2024-05-09T07:23:10.719Z,25.73
2024-05-09T07:25:38.904Z,24.70
2024-05-09T07:28:09.764Z,24.08
2024-05-09T07:30:36.898Z,24.55
2024-05-09T07:33:04.316Z,23.77
2024-05-09T07:35:31.850Z,21.52
2024-05-09T07:37:59.127Z,22.05
2024-05-09T07:40:33.165Z,23.70
2024-05-09T07:43:04.659Z,20.83
2024-05-09T07:45:48.180Z,18.48
2024-05-09T07:52:38.904Z,16.02
2024-05-09T07:53:47.338Z,18.23
2024-05-09T07:56:18.933Z,15.50
2024-05-09T07:58:47.515Z,15.15
2024-05-09T08:01:15.083Z,20.38
2024-05-09T08:03:42.487Z,17.92
2024-05-09T08:06:09.681Z,23.17
2024-05-09T08:08:36.817Z,23.50
2024-05-09T08:11:04.131Z,19.00
2024-05-09T08:13:31.216Z,19.65
2024-05-09T08:15:59.602Z,17.88
2024-05-09T08:18:26.873Z,16.70
2024-05-09T08:20:53.994Z,19.38
2024-05-09T08:23:21.151Z,19.98
2024-05-09T08:25:48.251Z,13.95
2024-05-09T08:28:15.749Z,15.23
2024-05-09T08:30:45.796Z,14.23
2024-05-09T08:33:13.066Z,12.13
2024-05-09T08:35:40.259Z,12.10
2024-05-09T08:38:07.762Z,12.73
2024-05-09T08:40:37.585Z,14.23
2024-05-09T08:43:11.448Z,11.90
2024-05-09T08:45:44.175Z,9.20
2024-05-09T08:48:16.163Z,10.75
2024-05-09T08:50:45.146Z,10.07
2024-05-09T08:53:14.596Z,10.18
2024-05-09T08:55:43.766Z,10.35
2024-05-09T08:58:16.908Z,9.85
2024-05-09T09:00:47.955Z,10.13
2024-05-09T09:03:17.961Z,9.68
2024-05-09T09:06:03.037Z,15.15
2024-05-09T09:08:30.463Z,10.23
2024-05-09T09:10:58.864Z,12.40
2024-05-09T09:13:29.003Z,7.93
2024-05-09T09:15:57.913Z,9.13
2024-05-09T09:18:27.223Z,8.02
2024-05-09T09:20:55.035Z,11.98
2024-05-09T09:23:22.920Z,10.10
2024-05-09T09:25:50.753Z,7.35
2024-05-09T09:28:18.200Z,6.40
2024-05-09T09:30:46.182Z,6.03
2024-05-09T09:33:15.626Z,39.92
2024-05-09T09:35:42.802Z,7.70
2024-05-09T09:38:11.166Z,11.60
2024-05-09T09:40:47.355Z,17.00
2024-05-09T09:43:23.065Z,8.70
2024-05-09T09:45:53.226Z,10.82
2024-05-09T09:48:23.085Z,9.75
2024-05-09T09:50:55.432Z,9.40
2024-05-09T09:53:23.906Z,8.15
2024-05-09T09:55:53.001Z,8.82
2024-05-09T09:58:20.962Z,9.27
2024-05-09T10:00:48.592Z,8.02
2024-05-09T10:03:16.074Z,7.72
2024-05-09T10:05:46.392Z,7.22
2024-05-09T10:08:16.477Z,7.30
2024-05-09T10:10:50.126Z,8.07
2024-05-09T10:13:18.046Z,7.38
2024-05-09T10:15:52.652Z,10.27
2024-05-09T10:18:27.051Z,9.38
2024-05-09T10:20:57.561Z,7.30
2024-05-09T10:23:33.601Z,10.48
2024-05-09T10:26:03.498Z,7.57
2024-05-09T10:28:37.955Z,7.80
2024-05-09T10:31:08.978Z,9.20
2024-05-09T10:33:45.528Z,9.80
2024-05-09T10:36:22.913Z,8.75
2024-05-09T10:38:51.569Z,7.53
2024-05-09T10:41:20.085Z,7.40
2024-05-09T10:43:49.833Z,5.93
2024-05-09T10:46:19.048Z,6.85
2024-05-09T10:48:47.830Z,7.28
2024-05-09T10:51:19.248Z,7.88
2024-05-09T10:53:48.182Z,12.27
2024-05-09T10:56:16.031Z,9.88
2024-05-09T10:58:43.255Z,6.80
2024-05-09T11:01:11.133Z,7.95
2024-05-09T11:03:39.593Z,7.88
2024-05-09T11:06:07.664Z,7.40
2024-05-09T11:08:36.212Z,6.95
2024-05-09T11:11:07.652Z,7.15
2024-05-09T11:13:37.530Z,6.68
2024-05-09T11:16:06.985Z,8.93
2024-05-09T11:18:38.205Z,5.75
2024-05-09T11:21:13.985Z,7.63
2024-05-09T11:23:41.705Z,6.85
2024-05-09T11:26:10.846Z,11.23
2024-05-09T11:28:38.132Z,8.43
2024-05-09T11:31:07.879Z,6.25
2024-05-09T11:33:44.055Z,6.00
2024-05-09T11:36:12.010Z,7.93
2024-05-09T11:38:39.351Z,5.60
2024-05-09T11:41:07.189Z,6.53
2024-05-09T11:43:34.399Z,8.68
2024-05-09T11:46:03.598Z,7.53
2024-05-09T11:48:31.702Z,5.70
2024-05-09T11:50:59.060Z,7.13
2024-05-09T11:53:26.254Z,7.25
2024-05-09T11:55:53.494Z,7.47
2024-05-09T11:58:22.902Z,6.40
2024-05-09T12:00:50.495Z,5.63
2024-05-09T12:03:17.934Z,7.38
2024-05-09T12:05:45.554Z,14.32
2024-05-09T12:08:13.181Z,6.43
2024-05-09T12:10:40.640Z,5.28
2024-05-09T12:13:08.142Z,4.88
2024-05-09T12:15:45.173Z,5.78
2024-05-09T12:18:12.358Z,4.95
2024-05-09T12:20:40.324Z,6.05
2024-05-09T12:23:10.077Z,7.03
2024-05-09T12:25:39.540Z,6.35
2024-05-09T12:28:07.719Z,7.07
2024-05-09T12:30:39.756Z,4.65
2024-05-09T12:33:10.323Z,6.30
2024-05-09T12:35:38.091Z,5.55
2024-05-09T12:38:05.519Z,5.07
2024-05-09T12:40:36.827Z,5.95
2024-05-09T12:43:10.329Z,7.75
2024-05-09T12:45:39.080Z,5.10
2024-05-09T12:48:11.875Z,5.75
2024-05-09T12:50:40.261Z,7.07
2024-05-09T12:53:07.521Z,19.20
2024-05-09T12:55:43.815Z,7.47
2024-05-09T12:58:19.047Z,5.45
2024-05-09T13:00:47.134Z,6.07
2024-05-09T13:03:14.795Z,6.43
2024-05-09T13:05:44.889Z,6.93
2024-05-09T13:08:13.218Z,6.57
2024-05-09T13:10:40.680Z,6.15
2024-05-09T13:15:37.621Z,7.97
2024-05-09T13:18:05.731Z,6.03
2024-05-09T13:20:35.541Z,5.78
2024-05-09T13:23:10.337Z,7.25
2024-05-09T13:25:38.469Z,6.85
2024-05-09T13:28:07.709Z,7.53
2024-05-09T13:30:40.314Z,9.00
2024-05-09T13:33:13.774Z,6.13
2024-05-09T13:35:48.928Z,5.85
2024-05-09T13:38:21.881Z,5.75
2024-05-09T13:40:49.999Z,7.97
2024-05-09T13:43:18.244Z,8.32
2024-05-09T13:45:45.968Z,7.20
2024-05-09T13:48:13.454Z,5.68
2024-05-09T13:50:40.751Z,7.53
2024-05-09T13:53:08.924Z,6.25
2024-05-09T13:55:38.302Z,9.05
2024-05-09T13:58:09.630Z,5.30
2024-05-09T14:00:46.671Z,5.28
2024-05-09T14:03:20.339Z,8.93
2024-05-09T14:05:50.771Z,4.65
2024-05-09T14:08:22.646Z,4.85
2024-05-09T14:10:50.824Z,4.03
2024-05-09T14:13:18.518Z,5.90
2024-05-09T14:15:46.760Z,4.28
2024-05-09T14:18:14.652Z,5.28
2024-05-09T14:20:45.476Z,4.47
2024-05-09T14:23:12.575Z,4.38
2024-05-09T14:25:42.744Z,7.45
2024-05-09T14:28:12.518Z,4.60
2024-05-09T14:30:40.545Z,4.75
2024-05-09T14:33:08.994Z,8.13
2024-05-09T14:35:40.116Z,5.00
2024-05-09T14:38:08.831Z,4.97
2024-05-09T14:40:41.943Z,6.30
2024-05-09T14:43:15.883Z,4.57
2024-05-09T14:45:44.039Z,5.90
2024-05-09T14:48:14.800Z,5.20
2024-05-09T14:50:48.564Z,4.35
2024-05-09T14:53:15.710Z,6.65
2024-05-09T14:55:43.812Z,7.72
2024-05-09T14:58:11.901Z,6.55
2024-05-09T15:00:46.020Z,6.25
2024-05-09T15:03:17.765Z,8.25
2024-05-09T15:05:45.504Z,7.03
2024-05-09T15:08:13.006Z,5.65
2024-05-09T15:10:40.412Z,11.00
2024-05-09T15:13:09.774Z,6.60
2024-05-09T15:15:38.662Z,5.50
2024-05-09T15:18:06.499Z,6.38
2024-05-09T15:20:36.693Z,4.55
2024-05-09T15:23:06.604Z,9.25
2024-05-09T15:25:35.532Z,6.90
2024-05-09T15:28:05.034Z,5.60
2024-05-09T15:30:33.883Z,6.82
2024-05-09T15:33:07.127Z,5.80
2024-05-09T15:35:35.942Z,8.73
2024-05-09T15:38:05.576Z,4.90
2024-05-09T15:40:39.146Z,9.15
2024-05-09T15:43:10.028Z,7.15
2024-05-09T15:45:39.204Z,5.28
2024-05-09T15:48:08.293Z,6.53
2024-05-09T15:50:39.579Z,4.32
2024-05-09T15:53:10.253Z,5.70
2024-05-09T15:55:38.291Z,5.60
2024-05-09T15:58:06.550Z,4.80
2024-05-09T16:00:39.320Z,5.88
2024-05-09T16:03:11.316Z,4.20
2024-05-09T16:05:40.765Z,4.82
2024-05-09T16:08:08.602Z,5.13
2024-05-09T16:10:37.608Z,5.22
2024-05-09T16:13:06.081Z,5.93
2024-05-09T16:15:36.214Z,6.07
2024-05-09T16:18:03.571Z,7.13
2024-05-09T16:20:38.842Z,9.40
2024-05-09T16:23:09.076Z,5.30
2024-05-09T16:25:36.866Z,7.15
2024-05-09T16:28:08.804Z,8.48
2024-05-09T16:30:39.087Z,6.43
2024-05-09T16:33:07.020Z,7.68
2024-05-09T16:35:35.185Z,6.22
2024-05-09T16:38:03.725Z,8.27
2024-05-09T16:40:37.841Z,7.75
2024-05-09T16:43:08.704Z,5.82
2024-05-09T16:45:36.745Z,6.45
2024-05-09T16:48:04.689Z,5.35
2024-05-09T16:50:34.703Z,5.78
2024-05-09T16:53:04.490Z,5.95
2024-05-09T16:55:35.739Z,7.95
2024-05-09T16:58:04.147Z,6.22
2024-05-09T17:00:39.758Z,5.18
2024-05-09T17:03:12.346Z,5.85
2024-05-09T17:05:40.747Z,8.07
2024-05-09T17:08:08.677Z,5.25
2024-05-09T17:10:36.633Z,7.07
2024-05-09T17:13:06.273Z,8.38
2024-05-09T17:15:36.076Z,6.70
2024-05-09T17:18:04.750Z,6.25
2024-05-09T17:20:35.230Z,5.15
2024-05-09T17:23:06.278Z,7.05
2024-05-09T17:25:34.265Z,6.10
2024-05-09T17:28:07.608Z,7.75
2024-05-09T17:30:38.612Z,3.40
2024-05-09T17:33:09.577Z,4.45
2024-05-09T17:35:38.323Z,5.57
2024-05-09T17:38:06.526Z,6.05
2024-05-09T17:40:36.579Z,5.13
2024-05-09T17:43:06.933Z,4.97
2024-05-09T18:04:01.025Z,4.35
2024-05-09T18:06:28.339Z,5.85
2024-05-09T18:08:55.371Z,5.35
2024-05-09T18:11:22.713Z,4.40
2024-05-09T18:13:49.854Z,5.70
2024-05-09T18:16:17.878Z,4.75
2024-05-09T18:18:45.152Z,6.57
2024-05-09T18:21:12.440Z,9.70
2024-05-09T18:23:39.507Z,6.78
2024-05-09T18:26:08.651Z,7.32
2024-05-09T18:28:35.871Z,9.10
2024-05-09T18:31:03.922Z,12.70
2024-05-09T18:33:31.101Z,14.40
2024-05-09T18:35:58.246Z,12.70
2024-05-09T18:38:26.943Z,13.52
2024-05-09T18:40:54.754Z,13.18
2024-05-09T18:43:26.375Z,13.82
2024-05-09T18:45:58.681Z,12.52
2024-05-09T18:48:25.896Z,15.13
2024-05-09T18:50:53.148Z,19.88
2024-05-09T18:53:20.269Z,14.38
2024-05-09T18:55:47.409Z,14.40
2024-05-09T18:58:17.187Z,15.50
2024-05-09T19:00:46.703Z,13.57
2024-05-09T19:03:16.458Z,13.47
2024-05-09T19:05:45.476Z,16.77
2024-05-09T19:08:14.692Z,14.80
2024-05-09T19:10:45.620Z,16.10
2024-05-09T19:13:14.202Z,16.33
2024-05-09T19:15:43.027Z,16.92
2024-05-09T19:18:14.894Z,14.70
2024-05-09T19:20:43.257Z,17.63
2024-05-09T19:23:11.803Z,20.15
2024-05-09T19:25:39.125Z,18.35
2024-05-09T19:28:06.527Z,18.00
2024-05-09T19:30:39.474Z,18.52
2024-05-09T19:33:12.841Z,18.88
2024-05-09T19:35:41.136Z,24.17
2024-05-09T19:38:08.600Z,18.10
2024-05-09T19:40:36.195Z,19.42
2024-05-09T19:43:05.183Z,18.70
2024-05-09T19:45:34.280Z,19.40
2024-05-09T19:48:02.548Z,17.98
2024-05-09T19:50:37.616Z,18.50
2024-05-09T19:53:10.809Z,18.80
2024-05-09T19:55:38.558Z,20.50
2024-05-09T19:58:07.435Z,18.88
2024-05-09T20:00:40.887Z,20.60
2024-05-09T20:03:11.517Z,22.15
2024-05-09T20:05:39.636Z,20.30
2024-05-09T20:08:07.579Z,19.30
2024-05-09T20:10:36.205Z,22.73
2024-05-09T20:13:06.399Z,26.00
2024-05-09T20:15:35.679Z,20.08
2024-05-09T20:18:04.056Z,21.92
2024-05-09T20:20:37.203Z,21.48
2024-05-09T20:23:08.778Z,22.10
2024-05-09T20:25:35.931Z,22.27
2024-05-09T20:28:03.211Z,20.05
2024-05-09T20:30:32.962Z,21.35
2024-05-09T20:33:09.616Z,19.23
2024-05-09T20:35:38.023Z,24.88
2024-05-09T20:38:05.622Z,19.90
2024-05-09T20:40:37.264Z,19.92
2024-05-09T20:43:08.048Z,22.10
2024-05-09T20:45:35.785Z,23.17
2024-05-09T20:48:03.490Z,20.17
2024-05-09T20:50:38.434Z,21.35
2024-05-09T20:53:13.443Z,23.75
2024-05-09T20:55:42.017Z,27.23
2024-05-09T20:58:10.220Z,22.45
2024-05-09T21:00:41.255Z,24.60
2024-05-09T21:03:12.693Z,22.98
2024-05-09T21:05:40.898Z,23.15
2024-05-09T21:08:08.614Z,21.92
2024-05-09T21:10:36.807Z,20.23
2024-05-09T21:13:05.692Z,21.00
2024-05-09T21:15:33.820Z,20.80
2024-05-09T21:18:01.068Z,20.10
2024-05-09T21:20:31.850Z,18.60
2024-05-09T21:23:00.951Z,23.97
2024-05-09T21:25:28.291Z,22.38
2024-05-09T21:27:55.750Z,18.92
2024-05-09T21:30:32.395Z,19.92
2024-05-09T21:33:13.650Z,19.20
2024-05-09T21:35:44.428Z,18.27
2024-05-09T21:38:13.810Z,16.58
2024-05-09T21:40:41.447Z,17.60
2024-05-09T21:43:08.907Z,24.23
2024-05-09T21:45:36.978Z,17.98
2024-05-09T21:48:05.256Z,21.70
2024-05-09T21:50:39.359Z,20.17
2024-05-09T21:53:08.956Z,17.88
2024-05-09T21:55:36.127Z,19.00
2024-05-09T21:58:03.662Z,18.77
2024-05-09T22:00:36.647Z,17.25
2024-05-09T22:03:07.713Z,16.98
2024-05-09T22:05:35.881Z,17.83
2024-05-09T22:08:03.643Z,20.05
2024-05-09T22:10:34.818Z,18.33
2024-05-09T22:13:05.308Z,17.40
2024-05-09T22:15:36.261Z,17.20
2024-05-09T22:18:05.032Z,17.30
2024-05-09T22:20:37.300Z,16.65
2024-05-09T22:23:06.820Z,16.17
2024-05-09T22:25:34.412Z,17.20
2024-05-09T22:28:03.048Z,17.38
2024-05-09T22:30:36.680Z,29.67
2024-05-09T22:33:11.012Z,18.48
2024-05-09T22:35:40.457Z,18.20
2024-05-09T22:38:09.012Z,18.67
2024-05-09T22:40:46.254Z,19.67
2024-05-09T22:43:21.692Z,17.15
2024-05-09T22:45:51.085Z,18.42
2024-05-09T22:48:19.022Z,17.05
2024-05-09T22:50:46.341Z,18.33
2024-05-09T22:53:13.402Z,17.05
2024-05-09T22:55:40.590Z,17.95
2024-05-09T22:58:07.864Z,17.73
2024-05-09T23:00:35.454Z,16.63
2024-05-09T23:03:03.357Z,19.58
2024-05-09T23:05:32.291Z,16.65
2024-05-09T23:08:01.203Z,18.05
2024-05-09T23:10:35.460Z,16.60
2024-05-09T23:13:05.870Z,18.85
2024-05-09T23:15:33.300Z,18.65
2024-05-09T23:18:00.535Z,16.85
2024-05-09T23:20:36.209Z,17.58
2024-05-09T23:23:11.118Z,19.60
2024-05-09T23:28:07.041Z,17.35
2024-05-09T23:30:38.523Z,18.65
2024-05-09T23:33:10.015Z,21.30
2024-05-09T23:35:37.474Z,20.80
2024-05-09T23:38:05.025Z,20.52
2024-05-09T23:40:39.231Z,22.38
2024-05-09T23:43:09.530Z,22.92
2024-05-09T23:45:37.347Z,21.08
2024-05-09T23:48:05.276Z,18.58
2024-05-09T23:50:36.484Z,19.83
2024-05-09T23:55:34.947Z,19.15
2024-05-09T23:58:02.109Z,20.15
